sensor_id;sensor_type;location;lat;lon;timestamp;P1;durP1;ratioP1;P2;durP2;ratioP2
611;SDS011;293;53.888;11.464;2024-02-28T00:00:48;17.52;;;12.63;;
611;SDS011;293;53.888;11.464;2024-02-28T00:03:16;18.77;;;12.15;;
611;SDS011;293;53.888;11.464;2024-02-28T00:05:45;18.65;;;12.15;;
611;SDS011;293;53.888;11.464;2024-02-28T00:08:12;25.67;;;16.00;;
611;SDS011;293;53.888;11.464;2024-02-28T00:10:38;25.02;;;13.77;;
611;SDS011;293;53.888;11.464;2024-02-28T00:13:05;18.35;;;12.68;;
611;SDS011;293;53.888;11.464;2024-02-28T00:15:32;17.60;;;11.75;;
611;SDS011;293;53.888;11.464;2024-02-28T00:17:59;19.40;;;11.52;;
611;SDS011;293;53.888;11.464;2024-02-28T00:20:26;23.15;;;14.35;;
611;SDS011;293;53.888;11.464;2024-02-28T00:22:56;21.75;;;12.85;;
611;SDS011;293;53.888;11.464;2024-02-28T00:25:22;20.05;;;12.35;;
611;SDS011;293;53.888;11.464;2024-02-28T00:27:49;22.95;;;15.40;;
611;SDS011;293;53.888;11.464;2024-02-28T00:30:16;23.63;;;16.75;;
611;SDS011;293;53.888;11.464;2024-02-28T00:32:44;18.75;;;13.20;;
611;SDS011;293;53.888;11.464;2024-02-28T00:35:10;19.05;;;12.15;;
611;SDS011;293;53.888;11.464;2024-02-28T00:37:38;15.60;;;11.10;;
611;SDS011;293;53.888;11.464;2024-02-28T00:40:07;19.20;;;12.45;;
611;SDS011;293;53.888;11.464;2024-02-28T00:42:35;21.42;;;13.20;;
611;SDS011;293;53.888;11.464;2024-02-28T00:45:02;20.10;;;11.93;;
611;SDS011;293;53.888;11.464;2024-02-28T00:47:29;13.80;;;9.57;;
611;SDS011;293;53.888;11.464;2024-02-28T00:49:57;16.92;;;9.93;;
611;SDS011;293;53.888;11.464;2024-02-28T00:52:23;13.48;;;9.82;;
611;SDS011;293;53.888;11.464;2024-02-28T00:54:50;15.48;;;11.18;;
611;SDS011;293;53.888;11.464;2024-02-28T00:57:19;16.77;;;12.05;;
611;SDS011;293;53.888;11.464;2024-02-28T00:59:45;14.82;;;11.57;;
611;SDS011;293;53.888;11.464;2024-02-28T01:02:13;15.95;;;11.40;;
611;SDS011;293;53.888;11.464;2024-02-28T01:04:41;15.38;;;11.10;;
611;SDS011;293;53.888;11.464;2024-02-28T01:07:08;15.35;;;10.48;;
611;SDS011;293;53.888;11.464;2024-02-28T01:09:35;16.23;;;11.32;;
611;SDS011;293;53.888;11.464;2024-02-28T01:12:01;14.48;;;10.18;;
611;SDS011;293;53.888;11.464;2024-02-28T01:14:30;13.27;;;9.95;;
611;SDS011;293;53.888;11.464;2024-02-28T01:16:57;15.85;;;11.07;;
611;SDS011;293;53.888;11.464;2024-02-28T01:19:24;17.45;;;12.75;;
611;SDS011;293;53.888;11.464;2024-02-28T01:21:51;18.80;;;11.68;;
611;SDS011;293;53.888;11.464;2024-02-28T01:24:18;20.65;;;12.60;;
611;SDS011;293;53.888;11.464;2024-02-28T01:26:44;18.83;;;12.43;;
611;SDS011;293;53.888;11.464;2024-02-28T01:29:11;18.23;;;11.98;;
611;SDS011;293;53.888;11.464;2024-02-28T01:31:39;18.33;;;11.90;;
611;SDS011;293;53.888;11.464;2024-02-28T01:34:06;18.02;;;11.75;;
611;SDS011;293;53.888;11.464;2024-02-28T01:36:33;20.58;;;11.32;;
611;SDS011;293;53.888;11.464;2024-02-28T01:39:00;16.90;;;11.35;;
611;SDS011;293;53.888;11.464;2024-02-28T01:41:28;14.68;;;10.23;;
611;SDS011;293;53.888;11.464;2024-02-28T01:43:55;20.17;;;12.57;;
611;SDS011;293;53.888;11.464;2024-02-28T01:46:22;18.08;;;11.05;;
611;SDS011;293;53.888;11.464;2024-02-28T01:48:53;13.82;;;10.75;;
611;SDS011;293;53.888;11.464;2024-02-28T01:51:22;14.07;;;9.98;;
611;SDS011;293;53.888;11.464;2024-02-28T01:53:50;14.40;;;9.93;;
611;SDS011;293;53.888;11.464;2024-02-28T01:56:18;17.17;;;10.40;;
611;SDS011;293;53.888;11.464;2024-02-28T01:58:46;17.10;;;11.50;;
611;SDS011;293;53.888;11.464;2024-02-28T02:01:14;12.38;;;8.95;;
611;SDS011;293;53.888;11.464;2024-02-28T02:03:42;13.48;;;8.60;;
611;SDS011;293;53.888;11.464;2024-02-28T02:06:10;16.05;;;9.85;;
611;SDS011;293;53.888;11.464;2024-02-28T02:08:38;11.07;;;8.35;;
611;SDS011;293;53.888;11.464;2024-02-28T02:11:05;14.23;;;9.93;;
611;SDS011;293;53.888;11.464;2024-02-28T02:13:32;15.90;;;9.05;;
611;SDS011;293;53.888;11.464;2024-02-28T02:16:00;13.55;;;9.43;;
611;SDS011;293;53.888;11.464;2024-02-28T02:18:27;15.73;;;9.23;;
611;SDS011;293;53.888;11.464;2024-02-28T02:20:54;12.98;;;8.40;;
611;SDS011;293;53.888;11.464;2024-02-28T02:23:29;14.93;;;9.50;;
611;SDS011;293;53.888;11.464;2024-02-28T02:25:56;13.18;;;8.95;;
611;SDS011;293;53.888;11.464;2024-02-28T02:28:23;13.70;;;8.88;;
611;SDS011;293;53.888;11.464;2024-02-28T02:30:50;13.18;;;8.18;;
611;SDS011;293;53.888;11.464;2024-02-28T02:33:16;11.52;;;8.23;;
611;SDS011;293;53.888;11.464;2024-02-28T02:35:43;14.23;;;9.18;;
611;SDS011;293;53.888;11.464;2024-02-28T02:38:10;15.40;;;9.23;;
611;SDS011;293;53.888;11.464;2024-02-28T02:40:38;13.70;;;10.13;;
611;SDS011;293;53.888;11.464;2024-02-28T02:43:05;10.32;;;7.95;;
611;SDS011;293;53.888;11.464;2024-02-28T02:45:32;11.52;;;8.80;;
611;SDS011;293;53.888;11.464;2024-02-28T02:47:59;13.68;;;9.05;;
611;SDS011;293;53.888;11.464;2024-02-28T02:50:26;9.65;;;7.55;;
611;SDS011;293;53.888;11.464;2024-02-28T02:52:55;17.38;;;8.57;;
611;SDS011;293;53.888;11.464;2024-02-28T02:55:22;12.35;;;9.00;;
611;SDS011;293;53.888;11.464;2024-02-28T02:57:50;8.13;;;5.75;;
611;SDS011;293;53.888;11.464;2024-02-28T03:00:17;10.43;;;7.68;;
611;SDS011;293;53.888;11.464;2024-02-28T03:02:44;11.88;;;7.85;;
611;SDS011;293;53.888;11.464;2024-02-28T03:05:11;13.90;;;8.93;;
611;SDS011;293;53.888;11.464;2024-02-28T03:07:38;10.20;;;7.10;;
611;SDS011;293;53.888;11.464;2024-02-28T03:10:05;11.95;;;8.38;;
611;SDS011;293;53.888;11.464;2024-02-28T03:12:34;10.25;;;7.82;;
611;SDS011;293;53.888;11.464;2024-02-28T03:15:02;11.38;;;8.25;;
611;SDS011;293;53.888;11.464;2024-02-28T03:17:30;11.48;;;8.68;;
611;SDS011;293;53.888;11.464;2024-02-28T03:19:56;10.32;;;7.70;;
611;SDS011;293;53.888;11.464;2024-02-28T03:22:23;10.90;;;7.78;;
611;SDS011;293;53.888;11.464;2024-02-28T03:24:50;10.85;;;7.30;;
611;SDS011;293;53.888;11.464;2024-02-28T03:27:17;10.38;;;7.97;;
611;SDS011;293;53.888;11.464;2024-02-28T03:29:44;9.95;;;7.95;;
611;SDS011;293;53.888;11.464;2024-02-28T03:32:12;11.77;;;8.65;;
611;SDS011;293;53.888;11.464;2024-02-28T03:34:39;8.27;;;6.55;;
611;SDS011;293;53.888;11.464;2024-02-28T03:37:06;8.73;;;7.57;;
611;SDS011;293;53.888;11.464;2024-02-28T03:39:32;13.30;;;6.75;;
611;SDS011;293;53.888;11.464;2024-02-28T03:41:59;10.32;;;7.75;;
611;SDS011;293;53.888;11.464;2024-02-28T03:44:26;12.05;;;8.40;;
611;SDS011;293;53.888;11.464;2024-02-28T03:46:53;11.82;;;7.63;;
611;SDS011;293;53.888;11.464;2024-02-28T03:49:21;9.05;;;7.75;;
611;SDS011;293;53.888;11.464;2024-02-28T03:51:48;15.65;;;7.78;;
611;SDS011;293;53.888;11.464;2024-02-28T03:54:15;10.90;;;8.00;;
611;SDS011;293;53.888;11.464;2024-02-28T03:56:42;11.63;;;8.13;;
611;SDS011;293;53.888;11.464;2024-02-28T03:59:09;11.77;;;7.75;;
611;SDS011;293;53.888;11.464;2024-02-28T04:01:36;11.55;;;8.05;;
611;SDS011;293;53.888;11.464;2024-02-28T04:04:03;10.98;;;8.35;;
611;SDS011;293;53.888;11.464;2024-02-28T04:06:31;11.30;;;8.18;;
611;SDS011;293;53.888;11.464;2024-02-28T04:08:58;9.63;;;6.93;;
611;SDS011;293;53.888;11.464;2024-02-28T04:11:25;11.63;;;8.15;;
611;SDS011;293;53.888;11.464;2024-02-28T04:13:52;12.48;;;8.23;;
611;SDS011;293;53.888;11.464;2024-02-28T04:16:19;12.82;;;9.30;;
611;SDS011;293;53.888;11.464;2024-02-28T04:18:46;9.00;;;6.80;;
611;SDS011;293;53.888;11.464;2024-02-28T04:21:12;10.27;;;7.78;;
611;SDS011;293;53.888;11.464;2024-02-28T04:23:41;13.45;;;8.00;;
611;SDS011;293;53.888;11.464;2024-02-28T04:26:09;11.23;;;8.02;;
611;SDS011;293;53.888;11.464;2024-02-28T04:28:36;15.95;;;8.60;;
611;SDS011;293;53.888;11.464;2024-02-28T04:31:03;11.98;;;8.65;;
611;SDS011;293;53.888;11.464;2024-02-28T04:33:29;14.45;;;9.05;;
611;SDS011;293;53.888;11.464;2024-02-28T04:35:57;12.90;;;8.80;;
611;SDS011;293;53.888;11.464;2024-02-28T04:38:24;13.65;;;9.25;;
611;SDS011;293;53.888;11.464;2024-02-28T04:40:52;14.18;;;9.40;;
611;SDS011;293;53.888;11.464;2024-02-28T04:43:19;12.30;;;8.60;;
611;SDS011;293;53.888;11.464;2024-02-28T04:45:46;15.88;;;8.48;;
611;SDS011;293;53.888;11.464;2024-02-28T04:48:13;14.60;;;10.00;;
611;SDS011;293;53.888;11.464;2024-02-28T04:50:40;13.10;;;8.80;;
611;SDS011;293;53.888;11.464;2024-02-28T04:53:07;15.15;;;8.95;;
611;SDS011;293;53.888;11.464;2024-02-28T04:55:34;12.82;;;8.63;;
611;SDS011;293;53.888;11.464;2024-02-28T04:58:02;13.23;;;9.10;;
611;SDS011;293;53.888;11.464;2024-02-28T05:00:29;14.15;;;8.75;;
611;SDS011;293;53.888;11.464;2024-02-28T05:02:56;12.45;;;9.13;;
611;SDS011;293;53.888;11.464;2024-02-28T05:05:23;14.00;;;10.40;;
611;SDS011;293;53.888;11.464;2024-02-28T05:07:49;13.70;;;8.40;;
611;SDS011;293;53.888;11.464;2024-02-28T05:10:16;13.98;;;10.13;;
611;SDS011;293;53.888;11.464;2024-02-28T05:12:43;12.73;;;8.38;;
611;SDS011;293;53.888;11.464;2024-02-28T05:15:11;14.45;;;10.88;;
611;SDS011;293;53.888;11.464;2024-02-28T05:17:40;16.15;;;12.05;;
611;SDS011;293;53.888;11.464;2024-02-28T05:20:07;14.85;;;9.32;;
611;SDS011;293;53.888;11.464;2024-02-28T05:22:57;12.27;;;9.45;;
611;SDS011;293;53.888;11.464;2024-02-28T05:25:23;14.27;;;10.40;;
611;SDS011;293;53.888;11.464;2024-02-28T05:27:50;14.90;;;9.65;;
611;SDS011;293;53.888;11.464;2024-02-28T05:30:17;13.40;;;10.02;;
611;SDS011;293;53.888;11.464;2024-02-28T05:32:44;14.00;;;9.52;;
611;SDS011;293;53.888;11.464;2024-02-28T05:35:11;15.32;;;9.68;;
611;SDS011;293;53.888;11.464;2024-02-28T05:37:39;15.90;;;10.35;;
611;SDS011;293;53.888;11.464;2024-02-28T05:40:08;19.95;;;13.35;;
611;SDS011;293;53.888;11.464;2024-02-28T05:42:37;15.80;;;10.43;;
611;SDS011;293;53.888;11.464;2024-02-28T05:45:05;13.00;;;8.98;;
611;SDS011;293;53.888;11.464;2024-02-28T05:47:32;14.85;;;9.02;;
611;SDS011;293;53.888;11.464;2024-02-28T05:49:59;13.43;;;9.73;;
611;SDS011;293;53.888;11.464;2024-02-28T05:52:26;14.38;;;9.88;;
611;SDS011;293;53.888;11.464;2024-02-28T05:54:53;12.70;;;8.48;;
611;SDS011;293;53.888;11.464;2024-02-28T05:57:21;15.27;;;10.43;;
611;SDS011;293;53.888;11.464;2024-02-28T05:59:48;14.68;;;9.98;;
611;SDS011;293;53.888;11.464;2024-02-28T06:02:15;13.75;;;10.55;;
611;SDS011;293;53.888;11.464;2024-02-28T06:04:42;13.80;;;10.60;;
611;SDS011;293;53.888;11.464;2024-02-28T06:07:09;16.45;;;11.73;;
611;SDS011;293;53.888;11.464;2024-02-28T06:09:36;12.35;;;9.40;;
611;SDS011;293;53.888;11.464;2024-02-28T06:12:03;15.07;;;11.15;;
611;SDS011;293;53.888;11.464;2024-02-28T06:14:31;14.15;;;10.25;;
611;SDS011;293;53.888;11.464;2024-02-28T06:16:58;13.60;;;10.95;;
611;SDS011;293;53.888;11.464;2024-02-28T06:19:25;17.95;;;12.30;;
611;SDS011;293;53.888;11.464;2024-02-28T06:21:53;16.77;;;11.75;;
611;SDS011;293;53.888;11.464;2024-02-28T06:24:20;14.80;;;10.95;;
611;SDS011;293;53.888;11.464;2024-02-28T06:26:47;18.13;;;12.48;;
611;SDS011;293;53.888;11.464;2024-02-28T06:29:13;14.95;;;11.20;;
611;SDS011;293;53.888;11.464;2024-02-28T06:31:42;16.50;;;11.30;;
611;SDS011;293;53.888;11.464;2024-02-28T06:34:07;15.73;;;11.10;;
611;SDS011;293;53.888;11.464;2024-02-28T06:36:34;12.77;;;10.20;;
611;SDS011;293;53.888;11.464;2024-02-28T06:39:02;19.25;;;13.23;;
611;SDS011;293;53.888;11.464;2024-02-28T06:41:29;15.40;;;11.27;;
611;SDS011;293;53.888;11.464;2024-02-28T06:43:56;16.80;;;12.70;;
611;SDS011;293;53.888;11.464;2024-02-28T06:46:23;15.77;;;12.40;;
611;SDS011;293;53.888;11.464;2024-02-28T06:48:52;17.33;;;12.75;;
611;SDS011;293;53.888;11.464;2024-02-28T06:51:19;17.17;;;11.77;;
611;SDS011;293;53.888;11.464;2024-02-28T06:53:46;19.23;;;13.48;;
611;SDS011;293;53.888;11.464;2024-02-28T06:56:12;18.08;;;12.63;;
611;SDS011;293;53.888;11.464;2024-02-28T06:58:39;26.13;;;19.80;;
611;SDS011;293;53.888;11.464;2024-02-28T07:01:06;28.33;;;19.20;;
611;SDS011;293;53.888;11.464;2024-02-28T07:03:33;19.60;;;14.20;;
611;SDS011;293;53.888;11.464;2024-02-28T07:06:02;15.70;;;11.60;;
611;SDS011;293;53.888;11.464;2024-02-28T07:08:29;16.42;;;13.10;;
611;SDS011;293;53.888;11.464;2024-02-28T07:10:55;19.70;;;14.15;;
611;SDS011;293;53.888;11.464;2024-02-28T07:13:22;20.25;;;14.63;;
611;SDS011;293;53.888;11.464;2024-02-28T07:15:49;18.73;;;13.75;;
611;SDS011;293;53.888;11.464;2024-02-28T07:18:19;18.67;;;14.93;;
611;SDS011;293;53.888;11.464;2024-02-28T07:20:46;18.20;;;13.75;;
611;SDS011;293;53.888;11.464;2024-02-28T07:23:14;18.30;;;13.23;;
611;SDS011;293;53.888;11.464;2024-02-28T07:25:41;17.48;;;13.88;;
611;SDS011;293;53.888;11.464;2024-02-28T07:28:08;16.83;;;13.07;;
611;SDS011;293;53.888;11.464;2024-02-28T07:30:35;18.35;;;14.43;;
611;SDS011;293;53.888;11.464;2024-02-28T07:33:02;19.17;;;15.23;;
611;SDS011;293;53.888;11.464;2024-02-28T07:35:31;19.77;;;14.40;;
611;SDS011;293;53.888;11.464;2024-02-28T07:37:57;17.85;;;12.95;;
611;SDS011;293;53.888;11.464;2024-02-28T07:40:26;22.48;;;14.80;;
611;SDS011;293;53.888;11.464;2024-02-28T07:42:52;18.50;;;15.27;;
611;SDS011;293;53.888;11.464;2024-02-28T07:45:19;18.05;;;14.02;;
611;SDS011;293;53.888;11.464;2024-02-28T07:47:46;17.05;;;14.60;;
611;SDS011;293;53.888;11.464;2024-02-28T07:50:13;19.90;;;14.80;;
611;SDS011;293;53.888;11.464;2024-02-28T07:52:41;20.30;;;14.00;;
611;SDS011;293;53.888;11.464;2024-02-28T07:55:08;22.58;;;15.88;;
611;SDS011;293;53.888;11.464;2024-02-28T07:57:36;19.30;;;14.07;;
611;SDS011;293;53.888;11.464;2024-02-28T08:00:03;17.98;;;13.93;;
611;SDS011;293;53.888;11.464;2024-02-28T08:02:31;17.63;;;13.52;;
611;SDS011;293;53.888;11.464;2024-02-28T08:04:58;22.92;;;15.43;;
611;SDS011;293;53.888;11.464;2024-02-28T08:07:25;21.15;;;14.70;;
611;SDS011;293;53.888;11.464;2024-02-28T08:09:52;21.53;;;16.27;;
611;SDS011;293;53.888;11.464;2024-02-28T08:12:19;19.53;;;15.47;;
611;SDS011;293;53.888;11.464;2024-02-28T08:14:47;20.27;;;15.83;;
611;SDS011;293;53.888;11.464;2024-02-28T08:17:14;19.60;;;16.60;;
611;SDS011;293;53.888;11.464;2024-02-28T08:19:41;19.20;;;15.57;;
611;SDS011;293;53.888;11.464;2024-02-28T08:22:08;20.75;;;16.10;;
611;SDS011;293;53.888;11.464;2024-02-28T08:24:35;19.50;;;15.00;;
611;SDS011;293;53.888;11.464;2024-02-28T08:27:02;19.60;;;15.93;;
611;SDS011;293;53.888;11.464;2024-02-28T08:29:29;18.00;;;15.73;;
611;SDS011;293;53.888;11.464;2024-02-28T08:31:59;19.23;;;15.40;;
611;SDS011;293;53.888;11.464;2024-02-28T08:34:26;20.60;;;17.43;;
611;SDS011;293;53.888;11.464;2024-02-28T08:36:52;20.97;;;17.20;;
611;SDS011;293;53.888;11.464;2024-02-28T08:39:19;20.23;;;16.73;;
611;SDS011;293;53.888;11.464;2024-02-28T08:41:46;22.93;;;17.37;;
611;SDS011;293;53.888;11.464;2024-02-28T08:44:13;19.13;;;16.90;;
611;SDS011;293;53.888;11.464;2024-02-28T08:46:40;20.50;;;16.47;;
611;SDS011;293;53.888;11.464;2024-02-28T08:49:08;24.30;;;19.10;;
611;SDS011;293;53.888;11.464;2024-02-28T08:51:35;20.23;;;16.63;;
611;SDS011;293;53.888;11.464;2024-02-28T08:54:02;25.00;;;19.03;;
611;SDS011;293;53.888;11.464;2024-02-28T08:56:29;24.20;;;18.53;;
611;SDS011;293;53.888;11.464;2024-02-28T08:58:56;21.70;;;16.47;;
611;SDS011;293;53.888;11.464;2024-02-28T09:01:22;23.87;;;18.57;;
611;SDS011;293;53.888;11.464;2024-02-28T09:03:49;30.17;;;23.63;;
611;SDS011;293;53.888;11.464;2024-02-28T09:06:18;34.20;;;26.03;;
611;SDS011;293;53.888;11.464;2024-02-28T09:08:44;25.27;;;21.87;;
611;SDS011;293;53.888;11.464;2024-02-28T09:11:11;22.97;;;18.17;;
611;SDS011;293;53.888;11.464;2024-02-28T09:13:38;26.87;;;19.80;;
611;SDS011;293;53.888;11.464;2024-02-28T09:16:05;24.30;;;20.10;;
611;SDS011;293;53.888;11.464;2024-02-28T09:18:32;23.90;;;18.73;;
611;SDS011;293;53.888;11.464;2024-02-28T09:20:59;20.00;;;16.93;;
611;SDS011;293;53.888;11.464;2024-02-28T09:23:27;20.80;;;16.60;;
611;SDS011;293;53.888;11.464;2024-02-28T09:25:55;21.50;;;15.67;;
611;SDS011;293;53.888;11.464;2024-02-28T09:28:22;20.70;;;17.50;;
611;SDS011;293;53.888;11.464;2024-02-28T09:30:49;20.27;;;16.20;;
611;SDS011;293;53.888;11.464;2024-02-28T09:33:16;21.00;;;17.00;;
611;SDS011;293;53.888;11.464;2024-02-28T09:35:44;21.10;;;17.20;;
611;SDS011;293;53.888;11.464;2024-02-28T09:38:11;20.97;;;17.90;;
611;SDS011;293;53.888;11.464;2024-02-28T09:40:39;19.30;;;15.50;;
611;SDS011;293;53.888;11.464;2024-02-28T09:43:10;22.20;;;17.17;;
611;SDS011;293;53.888;11.464;2024-02-28T09:45:41;23.37;;;19.33;;
611;SDS011;293;53.888;11.464;2024-02-28T09:48:08;19.73;;;17.67;;
611;SDS011;293;53.888;11.464;2024-02-28T09:50:36;20.97;;;16.23;;
611;SDS011;293;53.888;11.464;2024-02-28T09:53:05;20.63;;;16.87;;
611;SDS011;293;53.888;11.464;2024-02-28T09:55:32;21.20;;;18.00;;
611;SDS011;293;53.888;11.464;2024-02-28T09:58:00;18.70;;;16.13;;
611;SDS011;293;53.888;11.464;2024-02-28T10:00:28;20.00;;;17.20;;
611;SDS011;293;53.888;11.464;2024-02-28T10:02:56;21.07;;;16.40;;
611;SDS011;293;53.888;11.464;2024-02-28T10:05:26;19.17;;;17.17;;
611;SDS011;293;53.888;11.464;2024-02-28T10:07:53;18.17;;;14.73;;
611;SDS011;293;53.888;11.464;2024-02-28T10:10:21;17.80;;;15.67;;
611;SDS011;293;53.888;11.464;2024-02-28T10:12:49;22.20;;;18.10;;
611;SDS011;293;53.888;11.464;2024-02-28T10:15:17;27.63;;;22.60;;
611;SDS011;293;53.888;11.464;2024-02-28T10:17:44;21.40;;;15.63;;
611;SDS011;293;53.888;11.464;2024-02-28T10:20:11;19.17;;;16.27;;
611;SDS011;293;53.888;11.464;2024-02-28T10:22:38;22.13;;;16.40;;
611;SDS011;293;53.888;11.464;2024-02-28T10:25:06;19.53;;;16.57;;
611;SDS011;293;53.888;11.464;2024-02-28T10:27:34;18.17;;;15.70;;
611;SDS011;293;53.888;11.464;2024-02-28T10:30:01;22.00;;;16.23;;
611;SDS011;293;53.888;11.464;2024-02-28T10:32:31;16.80;;;15.03;;
611;SDS011;293;53.888;11.464;2024-02-28T10:35:00;17.77;;;14.40;;
611;SDS011;293;53.888;11.464;2024-02-28T10:37:28;18.03;;;15.40;;
611;SDS011;293;53.888;11.464;2024-02-28T10:39:56;22.70;;;16.40;;
611;SDS011;293;53.888;11.464;2024-02-28T10:42:25;18.13;;;15.67;;
611;SDS011;293;53.888;11.464;2024-02-28T10:44:52;19.10;;;14.77;;
611;SDS011;293;53.888;11.464;2024-02-28T10:47:21;17.43;;;13.67;;
611;SDS011;293;53.888;11.464;2024-02-28T10:49:50;17.03;;;14.30;;
611;SDS011;293;53.888;11.464;2024-02-28T10:52:17;14.67;;;12.70;;
611;SDS011;293;53.888;11.464;2024-02-28T10:54:48;16.50;;;13.77;;
611;SDS011;293;53.888;11.464;2024-02-28T10:57:24;26.23;;;17.23;;
611;SDS011;293;53.888;11.464;2024-02-28T10:59:51;17.30;;;15.23;;
611;SDS011;293;53.888;11.464;2024-02-28T11:02:18;19.87;;;15.10;;
611;SDS011;293;53.888;11.464;2024-02-28T11:04:46;20.07;;;16.60;;
611;SDS011;293;53.888;11.464;2024-02-28T11:07:20;19.30;;;17.20;;
611;SDS011;293;53.888;11.464;2024-02-28T11:09:47;17.20;;;15.30;;
611;SDS011;293;53.888;11.464;2024-02-28T11:12:23;19.27;;;15.43;;
611;SDS011;293;53.888;11.464;2024-02-28T11:14:57;17.10;;;15.13;;
611;SDS011;293;53.888;11.464;2024-02-28T11:17:28;16.43;;;14.70;;
611;SDS011;293;53.888;11.464;2024-02-28T11:19:56;16.90;;;15.00;;
611;SDS011;293;53.888;11.464;2024-02-28T11:22:27;21.00;;;17.10;;
611;SDS011;293;53.888;11.464;2024-02-28T11:24:54;18.40;;;15.77;;
611;SDS011;293;53.888;11.464;2024-02-28T11:27:22;19.07;;;15.70;;
611;SDS011;293;53.888;11.464;2024-02-28T11:29:49;18.00;;;14.97;;
611;SDS011;293;53.888;11.464;2024-02-28T11:32:16;20.20;;;16.77;;
611;SDS011;293;53.888;11.464;2024-02-28T11:34:42;19.03;;;16.70;;
611;SDS011;293;53.888;11.464;2024-02-28T11:37:10;20.33;;;17.20;;
611;SDS011;293;53.888;11.464;2024-02-28T11:39:38;17.87;;;15.50;;
611;SDS011;293;53.888;11.464;2024-02-28T11:42:09;19.60;;;16.13;;
611;SDS011;293;53.888;11.464;2024-02-28T11:44:38;21.97;;;17.20;;
611;SDS011;293;53.888;11.464;2024-02-28T11:47:05;20.00;;;17.00;;
611;SDS011;293;53.888;11.464;2024-02-28T11:49:35;20.87;;;18.00;;
611;SDS011;293;53.888;11.464;2024-02-28T11:52:02;17.63;;;15.53;;
611;SDS011;293;53.888;11.464;2024-02-28T11:54:30;21.47;;;16.97;;
611;SDS011;293;53.888;11.464;2024-02-28T11:56:58;19.10;;;17.10;;
611;SDS011;293;53.888;11.464;2024-02-28T11:59:25;18.93;;;16.17;;
611;SDS011;293;53.888;11.464;2024-02-28T12:01:52;19.50;;;16.50;;
611;SDS011;293;53.888;11.464;2024-02-28T12:04:20;18.90;;;15.90;;
611;SDS011;293;53.888;11.464;2024-02-28T12:06:51;20.30;;;16.73;;
611;SDS011;293;53.888;11.464;2024-02-28T12:09:18;17.00;;;14.20;;
611;SDS011;293;53.888;11.464;2024-02-28T12:11:45;21.23;;;17.33;;
611;SDS011;293;53.888;11.464;2024-02-28T12:14:14;18.33;;;16.17;;
611;SDS011;293;53.888;11.464;2024-02-28T12:16:41;20.20;;;15.07;;
611;SDS011;293;53.888;11.464;2024-02-28T12:19:09;25.67;;;21.63;;
611;SDS011;293;53.888;11.464;2024-02-28T12:21:38;26.93;;;20.47;;
611;SDS011;293;53.888;11.464;2024-02-28T12:24:06;21.23;;;17.00;;
611;SDS011;293;53.888;11.464;2024-02-28T12:26:34;19.03;;;14.63;;
611;SDS011;293;53.888;11.464;2024-02-28T12:29:01;18.40;;;14.60;;
611;SDS011;293;53.888;11.464;2024-02-28T12:31:30;20.10;;;15.70;;
611;SDS011;293;53.888;11.464;2024-02-28T12:33:57;20.67;;;16.47;;
611;SDS011;293;53.888;11.464;2024-02-28T12:36:24;19.07;;;15.97;;
611;SDS011;293;53.888;11.464;2024-02-28T12:38:51;17.13;;;14.53;;
611;SDS011;293;53.888;11.464;2024-02-28T12:41:18;19.60;;;15.43;;
611;SDS011;293;53.888;11.464;2024-02-28T12:43:45;20.43;;;16.20;;
611;SDS011;293;53.888;11.464;2024-02-28T12:46:12;22.63;;;17.27;;
611;SDS011;293;53.888;11.464;2024-02-28T12:48:40;19.80;;;17.70;;
611;SDS011;293;53.888;11.464;2024-02-28T12:51:08;21.30;;;17.23;;
611;SDS011;293;53.888;11.464;2024-02-28T12:53:39;18.60;;;14.97;;
611;SDS011;293;53.888;11.464;2024-02-28T12:56:06;17.20;;;14.67;;
611;SDS011;293;53.888;11.464;2024-02-28T12:58:33;23.53;;;16.40;;
611;SDS011;293;53.888;11.464;2024-02-28T13:01:00;18.80;;;16.00;;
611;SDS011;293;53.888;11.464;2024-02-28T13:03:27;22.83;;;15.33;;
611;SDS011;293;53.888;11.464;2024-02-28T13:05:56;17.20;;;14.87;;
611;SDS011;293;53.888;11.464;2024-02-28T13:08:22;20.07;;;16.30;;
611;SDS011;293;53.888;11.464;2024-02-28T13:10:49;19.00;;;14.47;;
611;SDS011;293;53.888;11.464;2024-02-28T13:13:16;17.47;;;14.30;;
611;SDS011;293;53.888;11.464;2024-02-28T13:15:43;16.50;;;14.40;;
611;SDS011;293;53.888;11.464;2024-02-28T13:18:11;20.80;;;16.53;;
611;SDS011;293;53.888;11.464;2024-02-28T13:20:38;18.90;;;14.90;;
611;SDS011;293;53.888;11.464;2024-02-28T13:23:06;20.30;;;14.97;;
611;SDS011;293;53.888;11.464;2024-02-28T13:25:33;21.63;;;16.57;;
611;SDS011;293;53.888;11.464;2024-02-28T13:28:00;18.57;;;15.13;;
611;SDS011;293;53.888;11.464;2024-02-28T13:30:27;18.40;;;14.80;;
611;SDS011;293;53.888;11.464;2024-02-28T13:32:54;19.47;;;14.10;;
611;SDS011;293;53.888;11.464;2024-02-28T13:35:22;25.90;;;19.20;;
611;SDS011;293;53.888;11.464;2024-02-28T13:37:48;15.53;;;12.97;;
611;SDS011;293;53.888;11.464;2024-02-28T13:40:17;16.07;;;12.03;;
611;SDS011;293;53.888;11.464;2024-02-28T13:42:44;18.00;;;13.93;;
611;SDS011;293;53.888;11.464;2024-02-28T13:45:10;15.73;;;14.13;;
611;SDS011;293;53.888;11.464;2024-02-28T13:47:37;14.73;;;12.40;;
611;SDS011;293;53.888;11.464;2024-02-28T13:50:05;16.13;;;12.60;;
611;SDS011;293;53.888;11.464;2024-02-28T13:52:33;16.50;;;13.77;;
611;SDS011;293;53.888;11.464;2024-02-28T13:55:00;19.03;;;12.93;;
611;SDS011;293;53.888;11.464;2024-02-28T13:57:28;17.93;;;11.93;;
611;SDS011;293;53.888;11.464;2024-02-28T13:59:55;14.27;;;11.80;;
611;SDS011;293;53.888;11.464;2024-02-28T14:02:22;15.27;;;12.17;;
611;SDS011;293;53.888;11.464;2024-02-28T14:04:51;15.40;;;12.80;;
611;SDS011;293;53.888;11.464;2024-02-28T14:07:18;13.97;;;11.80;;
611;SDS011;293;53.888;11.464;2024-02-28T14:09:44;15.50;;;12.10;;
611;SDS011;293;53.888;11.464;2024-02-28T14:12:11;16.23;;;13.30;;
611;SDS011;293;53.888;11.464;2024-02-28T14:14:40;14.03;;;12.10;;
611;SDS011;293;53.888;11.464;2024-02-28T14:17:07;17.57;;;13.37;;
611;SDS011;293;53.888;11.464;2024-02-28T14:19:34;15.37;;;11.90;;
611;SDS011;293;53.888;11.464;2024-02-28T14:22:01;16.73;;;12.20;;
611;SDS011;293;53.888;11.464;2024-02-28T14:24:29;13.90;;;11.80;;
611;SDS011;293;53.888;11.464;2024-02-28T14:26:56;12.70;;;9.83;;
611;SDS011;293;53.888;11.464;2024-02-28T14:29:22;13.70;;;11.90;;
611;SDS011;293;53.888;11.464;2024-02-28T14:31:51;16.90;;;13.70;;
611;SDS011;293;53.888;11.464;2024-02-28T14:34:18;13.20;;;11.17;;
611;SDS011;293;53.888;11.464;2024-02-28T14:36:44;13.50;;;11.70;;
611;SDS011;293;53.888;11.464;2024-02-28T14:39:12;13.73;;;11.37;;
611;SDS011;293;53.888;11.464;2024-02-28T14:41:40;11.47;;;10.03;;
611;SDS011;293;53.888;11.464;2024-02-28T14:44:08;12.60;;;10.60;;
611;SDS011;293;53.888;11.464;2024-02-28T14:46:35;11.70;;;10.27;;
611;SDS011;293;53.888;11.464;2024-02-28T14:49:04;11.63;;;10.40;;
611;SDS011;293;53.888;11.464;2024-02-28T14:51:31;17.50;;;13.07;;
611;SDS011;293;53.888;11.464;2024-02-28T14:53:58;66.03;;;58.87;;
611;SDS011;293;53.888;11.464;2024-02-28T14:56:25;18.30;;;12.90;;
611;SDS011;293;53.888;11.464;2024-02-28T14:58:53;15.30;;;12.80;;
611;SDS011;293;53.888;11.464;2024-02-28T15:01:20;13.67;;;11.40;;
611;SDS011;293;53.888;11.464;2024-02-28T15:03:48;13.20;;;10.53;;
611;SDS011;293;53.888;11.464;2024-02-28T15:06:16;13.60;;;11.50;;